Time;durP1;ratioP1;P1;durP2;ratioP2;P2;SDS_P1;SDS_P2;PMS_P1;PMS_P2;Temp;Humidity;BMP_temperature;BMP_pressure;BME280_temperature;BME280_humidity;BME280_pressure;Samples;Min_cycle;Max_cycle;Signal;HPM_P1;HPM_P2
2022/06/12 00:00:50;;;;;;;3.58;1.80;;;23.80;99.90;;;;;;5091261;28;20267;-71
2022/06/12 00:03:20;;;;;;;3.45;2.03;;;23.70;99.90;;;;;;5090717;28;20227;-70
2022/06/12 00:05:49;;;;;;;1.85;1.60;;;23.70;99.90;;;;;;5076894;28;20225;-70
2022/06/12 00:08:18;;;;;;;2.50;2.25;;;23.70;99.90;;;;;;5090919;28;20201;-71
2022/06/12 00:10:47;;;;;;;2.60;1.85;;;23.70;99.90;;;;;;5090733;28;20590;-72
2022/06/12 00:13:17;;;;;;;4.70;2.03;;;23.50;99.90;;;;;;5090769;28;20209;-72
2022/06/12 00:15:45;;;;;;;6.05;2.25;;;23.40;99.90;;;;;;5091038;28;20263;-72
2022/06/12 00:18:13;;;;;;;2.97;2.67;;;23.40;99.90;;;;;;5090488;28;20254;-72
2022/06/12 00:20:40;;;;;;;4.13;1.98;;;23.40;99.90;;;;;;5090950;28;20228;-71
2022/06/12 00:23:09;;;;;;;4.15;2.58;;;23.50;99.90;;;;;;5090651;28;20210;-71
2022/06/12 00:25:36;;;;;;;3.72;2.85;;;23.50;99.90;;;;;;5090791;28;20262;-72
2022/06/12 00:28:03;;;;;;;4.15;2.97;;;23.50;99.90;;;;;;5090122;28;20202;-71
2022/06/12 00:30:30;;;;;;;4.25;2.78;;;23.50;99.90;;;;;;5091064;28;20234;-71
2022/06/12 00:32:59;;;;;;;3.40;2.88;;;23.40;99.90;;;;;;5090857;28;20205;-71
2022/06/12 00:35:31;;;;;;;7.53;2.97;;;23.40;99.90;;;;;;5090667;28;20213;-71
2022/06/12 00:37:58;;;;;;;4.00;3.08;;;23.40;99.90;;;;;;5090700;28;20255;-71
2022/06/12 00:40:26;;;;;;;4.13;3.10;;;23.40;99.90;;;;;;5090710;28;20214;-72
2022/06/12 00:42:56;;;;;;;4.78;3.10;;;23.30;99.90;;;;;;5090351;28;20209;-72
2022/06/12 00:45:38;;;;;;;8.88;4.05;;;23.20;99.90;;;;;;5090438;28;20209;-71
2022/06/12 00:48:09;;;;;;;4.90;3.03;;;23.20;99.90;;;;;;5091549;28;20300;-72
2022/06/12 00:50:44;;;;;;;3.90;3.17;;;23.20;99.90;;;;;;5097357;28;20647;-71
2022/06/12 00:53:14;;;;;;;6.82;4.50;;;23.20;99.90;;;;;;5096675;28;20661;-72
2022/06/12 00:55:46;;;;;;;8.65;4.28;;;23.10;99.90;;;;;;5097246;28;20205;-71
2022/06/12 00:58:18;;;;;;;5.20;3.70;;;23.20;99.90;;;;;;5096935;28;20265;-72
2022/06/12 01:00:47;;;;;;;4.70;3.70;;;23.20;99.90;;;;;;5097003;28;20292;-71
2022/06/12 01:03:16;;;;;;;5.20;3.95;;;23.20;99.90;;;;;;5096679;28;20205;-72
2022/06/12 01:08:30;;;;;;;9.10;4.60;;;23.00;99.90;;;;;;5097325;28;20212;-70
2022/06/12 01:11:01;;;;;;;5.82;3.90;;;23.00;99.90;;;;;;5097485;28;20262;-71
2022/06/12 01:13:36;;;;;;;4.72;4.20;;;22.90;99.90;;;;;;5097307;28;20628;-70
2022/06/12 01:16:08;;;;;;;5.57;4.30;;;22.90;99.90;;;;;;5096312;28;20247;-70
2022/06/12 01:18:39;;;;;;;6.40;4.10;;;22.90;99.90;;;;;;5097217;28;20209;-70
2022/06/12 01:21:35;;;;;;;6.70;4.80;;;22.80;99.90;;;;;;5096767;28;20209;-70
2022/06/12 01:24:24;;;;;;;5.75;3.80;;;22.80;99.90;;;;;;5096815;28;20209;-71
2022/06/12 01:27:22;;;;;;;7.43;4.97;;;22.70;99.90;;;;;;5074846;28;20229;-70
2022/06/12 01:29:58;;;;;;;7.28;4.30;;;22.60;99.90;;;;;;5096718;28;20205;-70
2022/06/12 01:32:33;;;;;;;10.15;4.68;;;22.60;99.90;;;;;;5096916;28;20213;-71
2022/06/12 01:35:07;;;;;;;5.95;4.05;;;22.70;99.90;;;;;;5074589;28;20252;-70
2022/06/12 01:37:45;;;;;;;11.18;4.90;;;22.70;99.90;;;;;;5076678;28;20205;-71
2022/06/12 01:40:22;;;;;;;13.25;5.10;;;22.60;99.90;;;;;;5076095;28;20300;-71
2022/06/12 01:42:55;;;;;;;10.20;4.72;;;22.60;99.90;;;;;;5076366;28;20627;-71
2022/06/12 01:45:33;;;;;;;8.73;4.00;;;22.50;99.90;;;;;;5076219;28;20658;-70
2022/06/12 01:48:10;;;;;;;8.75;4.18;;;22.50;99.90;;;;;;5076537;28;20234;-71
2022/06/12 01:50:43;;;;;;;7.22;4.80;;;22.40;99.90;;;;;;5076543;28;20214;-71
2022/06/12 01:53:16;;;;;;;8.70;5.43;;;22.30;99.90;;;;;;5076173;28;20214;-72
2022/06/12 01:55:47;;;;;;;7.05;5.10;;;22.30;99.90;;;;;;5076790;28;20335;-71
2022/06/12 01:58:23;;;;;;;8.80;5.00;;;22.30;99.90;;;;;;5076023;28;20267;-70
2022/06/12 02:00:55;;;;;;;6.68;5.13;;;22.20;99.90;;;;;;5073059;28;21036;-71
2022/06/12 02:03:30;;;;;;;7.60;5.25;;;22.30;99.90;;;;;;5072865;28;21141;-72
2022/06/12 02:06:03;;;;;;;9.38;6.25;;;22.30;99.90;;;;;;5073356;28;20693;-71
2022/06/12 02:08:37;;;;;;;9.85;5.88;;;22.20;99.90;;;;;;5059376;28;20206;-72
2022/06/12 02:13:52;;;;;;;12.82;5.70;;;21.90;99.90;;;;;;5072840;28;20198;-70
2022/06/12 02:16:25;;;;;;;6.40;5.80;;;21.80;99.90;;;;;;5072844;28;20268;-70
2022/06/12 02:18:57;;;;;;;8.63;5.75;;;21.90;99.90;;;;;;5060047;28;20198;-70
2022/06/12 02:21:29;;;;;;;8.25;6.03;;;21.90;99.90;;;;;;5072547;28;20678;-70
2022/06/12 02:24:01;;;;;;;8.95;6.22;;;21.80;99.90;;;;;;5060131;28;20259;-71
2022/06/12 02:26:36;;;;;;;6.35;4.95;;;21.80;99.90;;;;;;5072886;28;20266;-70
2022/06/12 02:29:07;;;;;;;6.80;5.45;;;21.80;99.90;;;;;;5072122;28;20202;-70
2022/06/12 02:31:40;;;;;;;7.85;7.15;;;21.80;99.90;;;;;;5072666;28;20243;-70
2022/06/12 02:34:22;;;;;;;10.82;5.97;;;21.70;99.90;;;;;;5072376;28;20300;-69
2022/06/12 02:36:53;;;;;;;8.43;6.30;;;21.70;99.90;;;;;;5072451;28;20236;-69
2022/06/12 02:39:23;;;;;;;8.60;5.72;;;21.70;99.90;;;;;;5072333;28;20260;-69
2022/06/12 02:41:53;;;;;;;8.65;6.18;;;21.60;99.90;;;;;;5072299;28;20678;-70
2022/06/12 02:44:24;;;;;;;9.48;5.43;;;21.50;99.90;;;;;;5071786;28;20206;-70
2022/06/12 02:46:56;;;;;;;5.72;5.22;;;21.50;99.90;;;;;;5072344;28;20233;-69
2022/06/12 02:49:23;;;;;;;6.38;5.78;;;21.40;99.90;;;;;;5071992;28;20271;-70
2022/06/12 02:51:56;;;;;;;7.85;6.18;;;21.40;99.90;;;;;;5072541;28;20628;-70
2022/06/12 02:54:31;;;;;;;6.43;5.32;;;21.30;99.90;;;;;;5071806;28;20213;-70
2022/06/12 02:57:10;;;;;;;7.35;5.72;;;21.30;99.90;;;;;;5072407;28;20259;-71
2022/06/12 02:59:46;;;;;;;8.63;5.35;;;21.30;99.90;;;;;;5072067;28;20234;-71
2022/06/12 03:02:19;;;;;;;7.47;5.18;;;21.30;99.90;;;;;;5071686;28;20206;-70
2022/06/12 03:04:56;;;;;;;8.48;5.57;;;21.10;99.90;;;;;;5071880;28;20697;-70
2022/06/12 03:07:24;;;;;;;5.72;5.05;;;21.00;99.90;;;;;;5071472;28;20222;-70
2022/06/12 03:09:51;;;;;;;8.40;5.63;;;21.00;99.90;;;;;;5071915;28;20206;-71
2022/06/12 03:12:18;;;;;;;8.55;5.85;;;21.00;99.90;;;;;;5070197;28;20600;-71
2022/06/12 03:14:45;;;;;;;8.43;6.28;;;20.90;99.90;;;;;;5071492;28;20708;-71
2022/06/12 03:17:14;;;;;;;8.77;5.00;;;20.90;99.90;;;;;;5071734;28;20245;-71
2022/06/12 03:19:46;;;;;;;15.55;5.57;;;20.80;99.90;;;;;;5071502;28;20214;-71
2022/06/12 03:22:22;;;;;;;10.50;6.13;;;20.80;99.90;;;;;;5071435;28;20237;-71
2022/06/12 03:24:58;;;;;;;9.38;6.03;;;20.90;99.90;;;;;;5071691;28;20213;-72
2022/06/12 03:27:41;;;;;;;6.07;5.43;;;20.80;99.90;;;;;;5071500;28;20318;-72
2022/06/12 03:30:17;;;;;;;9.13;5.45;;;20.70;99.90;;;;;;5071136;28;20263;-72
2022/06/12 03:33:00;;;;;;;11.57;6.00;;;20.60;99.90;;;;;;5071505;28;20275;-72
2022/06/12 03:35:46;;;;;;;8.55;5.65;;;20.60;99.90;;;;;;5058393;28;20206;-72
2022/06/12 03:38:20;;;;;;;10.48;5.72;;;20.60;99.90;;;;;;5071113;28;20214;-72
2022/06/12 03:40:54;;;;;;;7.88;6.00;;;20.70;99.90;;;;;;5071270;28;20275;-69
2022/06/12 03:43:31;;;;;;;9.55;5.93;;;20.70;99.90;;;;;;5070663;28;21118;-70
2022/06/12 03:46:06;;;;;;;9.05;5.72;;;20.50;99.90;;;;;;5071621;28;20213;-69
2022/06/12 03:48:40;;;;;;;9.05;5.85;;;20.60;99.90;;;;;;5071431;28;20241;-70
2022/06/12 03:51:14;;;;;;;7.70;6.45;;;20.50;99.90;;;;;;5070759;28;20202;-70
2022/06/12 03:53:47;;;;;;;6.95;5.78;;;20.60;99.90;;;;;;5071026;28;20589;-70
2022/06/12 03:59:13;;;;;;;8.57;6.43;;;20.40;99.90;;;;;;5070687;28;20212;-69
2022/06/12 04:01:42;;;;;;;11.10;6.13;;;20.50;99.90;;;;;;5070900;28;20247;-69
2022/06/12 04:04:12;;;;;;;8.25;6.05;;;20.40;99.90;;;;;;5070290;28;20206;-69
2022/06/12 04:06:40;;;;;;;8.77;5.78;;;20.30;99.90;;;;;;5071051;28;20206;-69
2022/06/12 04:09:13;;;;;;;8.23;6.30;;;20.30;99.90;;;;;;5070492;28;20206;-70
2022/06/12 04:11:42;;;;;;;11.25;6.10;;;20.40;99.90;;;;;;5057522;28;20202;-70
2022/06/12 04:14:16;;;;;;;10.93;6.70;;;20.40;99.90;;;;;;5070316;28;20701;-70
2022/06/12 04:16:47;;;;;;;7.45;6.00;;;20.50;99.90;;;;;;5056909;28;20210;-70
2022/06/12 04:19:18;;;;;;;7.25;6.18;;;20.60;99.90;;;;;;5070452;28;20206;-69
2022/06/12 04:21:51;;;;;;;9.25;5.90;;;20.40;99.90;;;;;;5070565;28;20202;-70
2022/06/12 04:24:25;;;;;;;7.13;4.70;;;20.40;99.90;;;;;;5069820;28;20202;-69
2022/06/12 04:26:57;;;;;;;6.65;6.05;;;20.40;99.90;;;;;;5070555;28;20206;-70
2022/06/12 04:29:27;;;;;;;8.35;6.72;;;20.40;99.90;;;;;;5070215;28;20233;-68
2022/06/12 04:31:56;;;;;;;10.15;6.03;;;20.40;99.90;;;;;;5070645;28;20234;-69
2022/06/12 04:34:28;;;;;;;7.07;5.05;;;20.30;99.90;;;;;;5070409;28;20237;-69
2022/06/12 04:36:57;;;;;;;6.90;5.03;;;20.30;99.90;;;;;;5070364;28;20209;-71
2022/06/12 04:39:28;;;;;;;6.65;5.57;;;20.20;99.90;;;;;;5069872;28;20275;-68
2022/06/12 04:41:56;;;;;;;9.15;5.57;;;20.00;99.90;;;;;;5070260;28;20218;-68
2022/06/12 04:44:23;;;;;;;7.90;4.93;;;20.00;99.90;;;;;;5070172;28;20206;-69
2022/06/12 04:46:53;;;;;;;7.85;5.45;;;20.10;99.90;;;;;;5070621;28;20210;-69
2022/06/12 04:49:22;;;;;;;8.23;5.68;;;20.10;99.90;;;;;;5069969;28;20631;-69
2022/06/12 04:51:53;;;;;;;7.00;5.60;;;20.20;99.90;;;;;;5070604;28;20206;-68
2022/06/12 04:54:21;;;;;;;6.05;4.95;;;20.30;99.90;;;;;;5069510;28;20267;-69
2022/06/12 04:56:49;;;;;;;5.40;4.72;;;20.30;99.90;;;;;;5070110;28;20210;-69
2022/06/12 04:59:18;;;;;;;6.95;5.20;;;20.30;99.90;;;;;;5069709;28;20211;-69
2022/06/12 05:01:46;;;;;;;11.98;6.60;;;20.40;99.90;;;;;;5070291;28;20670;-69
2022/06/12 05:04:13;;;;;;;5.35;4.90;;;20.40;99.90;;;;;;5069600;28;20208;-70
2022/06/12 05:06:42;;;;;;;5.60;4.35;;;20.50;99.90;;;;;;5070266;28;20602;-70
2022/06/12 05:09:14;;;;;;;6.97;5.18;;;20.50;99.90;;;;;;5069519;28;20604;-70
2022/06/12 05:11:42;;;;;;;5.00;4.13;;;20.60;99.90;;;;;;5057040;28;20205;-70
2022/06/12 05:14:09;;;;;;;7.15;5.15;;;20.60;99.90;;;;;;5069796;28;20229;-70
2022/06/12 05:16:40;;;;;;;8.63;4.35;;;20.50;99.90;;;;;;5070089;28;20267;-70
2022/06/12 05:19:10;;;;;;;10.88;5.03;;;20.60;99.90;;;;;;5069610;28;20210;-70
2022/06/12 05:21:37;;;;;;;9.68;4.50;;;20.50;99.90;;;;;;5069782;28;20682;-70
2022/06/12 05:24:05;;;;;;;8.65;5.88;;;20.60;99.90;;;;;;5069789;28;20241;-70
2022/06/12 05:26:34;;;;;;;10.82;4.75;;;20.60;99.90;;;;;;5069777;28;20202;-70
2022/06/12 05:29:02;;;;;;;7.40;5.10;;;20.70;99.90;;;;;;5070130;28;20326;-72
2022/06/12 05:31:29;;;;;;;7.45;4.70;;;20.80;99.90;;;;;;5066268;28;20210;-70
2022/06/12 05:33:56;;;;;;;11.07;5.57;;;20.80;99.90;;;;;;5069970;28;20275;-70
2022/06/12 05:36:24;;;;;;;11.10;4.70;;;20.80;99.90;;;;;;5071517;28;20677;-70
2022/06/12 05:38:52;;;;;;;11.85;6.47;;;20.70;99.90;;;;;;5074390;28;20245;-70
2022/06/12 05:41:20;;;;;;;8.15;4.43;;;20.70;99.90;;;;;;5074412;28;20296;-71
2022/06/12 05:43:48;;;;;;;6.60;5.25;;;20.80;99.90;;;;;;5074508;28;20277;-70
2022/06/12 05:46:17;;;;;;;8.25;4.90;;;20.80;99.90;;;;;;5073514;28;20206;-70
2022/06/12 05:48:45;;;;;;;6.50;4.97;;;20.80;99.90;;;;;;5072574;28;20238;-69
2022/06/12 05:51:13;;;;;;;8.90;5.47;;;20.80;99.90;;;;;;5061397;28;20264;-69
2022/06/12 05:53:40;;;;;;;6.43;4.47;;;20.80;99.90;;;;;;5075556;28;20202;-70
2022/06/12 05:56:09;;;;;;;5.30;4.10;;;20.90;99.90;;;;;;5076434;28;20210;-69
2022/06/12 05:58:38;;;;;;;6.20;5.22;;;21.10;99.90;;;;;;5075395;28;20205;-72
2022/06/12 06:01:08;;;;;;;8.88;5.68;;;21.20;99.90;;;;;;5070081;28;20279;-70
2022/06/12 06:03:35;;;;;;;4.72;3.90;;;21.30;99.90;;;;;;5073304;28;20260;-70
2022/06/12 06:06:03;;;;;;;6.13;4.35;;;21.40;99.90;;;;;;5072360;28;20303;-71
2022/06/12 06:08:30;;;;;;;8.95;4.53;;;21.40;99.90;;;;;;5073187;28;20729;-70
2022/06/12 06:10:57;;;;;;;6.60;4.35;;;21.30;99.90;;;;;;5073331;28;20202;-71
2022/06/12 06:13:24;;;;;;;5.85;4.65;;;21.60;99.90;;;;;;5072578;28;20263;-70
2022/06/12 06:15:51;;;;;;;12.85;5.10;;;21.70;99.90;;;;;;5072979;28;20206;-70
2022/06/12 06:18:20;;;;;;;8.88;5.13;;;21.80;99.90;;;;;;5072227;28;20573;-70
2022/06/12 06:20:49;;;;;;;5.95;4.03;;;21.90;99.90;;;;;;5072753;28;20206;-70
2022/06/12 06:23:16;;;;;;;6.05;3.75;;;22.00;99.90;;;;;;5070518;28;20268;-74
2022/06/12 06:25:43;;;;;;;10.68;5.03;;;22.00;99.90;;;;;;5071559;28;20198;-70
2022/06/12 06:28:12;;;;;;;8.93;4.47;;;22.00;99.90;;;;;;5080858;28;20233;-70
2022/06/12 06:30:40;;;;;;;8.02;4.88;;;21.90;99.90;;;;;;5082625;28;20201;-72
2022/06/12 06:33:07;;;;;;;8.27;4.10;;;22.00;99.90;;;;;;5086854;28;20209;-70
2022/06/12 06:35:36;;;;;;;4.50;4.10;;;22.00;99.90;;;;;;5085698;28;20251;-70
2022/06/12 06:38:04;;;;;;;8.85;4.85;;;22.20;99.90;;;;;;5085150;28;20213;-70
2022/06/12 06:40:32;;;;;;;11.10;5.18;;;22.30;99.90;;;;;;5065020;28;20264;-70
2022/06/12 06:42:59;;;;;;;7.88;4.80;;;22.50;99.90;;;;;;5069343;28;20599;-71
2022/06/12 06:48:11;;;;;;;4.68;4.00;;;22.60;99.90;;;;;;5072922;28;20236;-70
2022/06/12 06:50:41;;;;;;;4.38;3.97;;;22.80;99.90;;;;;;5074753;28;20197;-70
2022/06/12 06:53:09;;;;;;;9.48;6.38;;;22.90;99.90;;;;;;5072782;28;20209;-70
2022/06/12 06:55:36;;;;;;;5.72;4.25;;;23.10;99.90;;;;;;5075808;28;20205;-71
2022/06/12 06:58:07;;;;;;;6.47;4.47;;;23.30;99.90;;;;;;5068247;28;20252;-69
2022/06/12 07:00:35;;;;;;;5.70;4.30;;;23.20;99.90;;;;;;5066151;28;20685;-69
2022/06/12 07:03:02;;;;;;;6.05;5.30;;;23.20;99.90;;;;;;5073792;28;20210;-69
2022/06/12 07:05:30;;;;;;;5.40;4.13;;;23.20;99.90;;;;;;5069647;28;20683;-68
2022/06/12 07:08:00;;;;;;;8.07;4.70;;;23.10;99.90;;;;;;5074020;28;20236;-68
2022/06/12 07:10:29;;;;;;;7.55;4.93;;;23.20;99.90;;;;;;5071869;28;20202;-69
2022/06/12 07:12:57;;;;;;;6.15;4.28;;;23.40;99.90;;;;;;5069301;28;20203;-68
2022/06/12 07:15:24;;;;;;;9.18;4.30;;;23.40;99.90;;;;;;5071018;28;20217;-68
2022/06/12 07:17:54;;;;;;;5.40;3.97;;;23.50;99.90;;;;;;5071075;28;20206;-68
2022/06/12 07:20:24;;;;;;;10.18;4.85;;;23.70;99.90;;;;;;5071494;28;20214;-68
2022/06/12 07:22:51;;;;;;;7.97;5.25;;;23.90;99.90;;;;;;5071576;28;20207;-69
2022/06/12 07:25:20;;;;;;;6.15;4.25;;;24.00;99.90;;;;;;5071579;28;20206;-69
2022/06/12 07:27:48;;;;;;;5.93;5.10;;;24.30;99.90;;;;;;5063243;28;20210;-69
2022/06/12 07:30:19;;;;;;;6.95;5.35;;;24.50;99.90;;;;;;5074945;28;20256;-72
2022/06/12 07:32:46;;;;;;;6.88;4.28;;;25.00;99.90;;;;;;5068842;28;20256;-70
2022/06/12 07:35:13;;;;;;;5.75;4.55;;;25.00;99.90;;;;;;5076992;28;20203;-70
2022/06/12 07:37:41;;;;;;;5.75;4.07;;;24.80;99.90;;;;;;5077634;28;20206;-70
2022/06/12 07:40:16;;;;;;;6.72;3.85;;;24.60;99.90;;;;;;5065411;28;20210;-71
2022/06/12 07:42:45;;;;;;;7.07;4.18;;;24.90;99.90;;;;;;5061531;28;20207;-70
2022/06/12 07:45:13;;;;;;;4.55;3.78;;;24.60;99.90;;;;;;5064391;28;20210;-70
2022/06/12 07:47:40;;;;;;;5.03;3.60;;;24.40;99.90;;;;;;5067691;28;20674;-69
2022/06/12 07:50:08;;;;;;;6.07;4.28;;;24.30;99.90;;;;;;5072015;28;20230;-70
2022/06/12 07:52:35;;;;;;;6.43;4.50;;;24.20;99.90;;;;;;5073233;28;20210;-71
2022/06/12 07:55:02;;;;;;;5.15;4.38;;;24.20;99.90;;;;;;5062191;28;20214;-72
2022/06/12 07:57:29;;;;;;;4.90;3.92;;;24.10;99.90;;;;;;5070454;28;20618;-70
2022/06/12 07:59:57;;;;;;;5.90;4.10;;;24.10;99.90;;;;;;5071237;28;20719;-70
2022/06/12 08:02:24;;;;;;;4.43;3.83;;;24.10;99.90;;;;;;5070286;28;20331;-70
2022/06/12 08:04:51;;;;;;;5.43;4.25;;;24.20;99.90;;;;;;5070985;28;20224;-70
2022/06/12 08:07:18;;;;;;;7.18;4.63;;;24.50;99.90;;;;;;5070575;28;20598;-70
2022/06/12 08:09:45;;;;;;;4.60;4.20;;;27.00;99.90;;;;;;5070687;28;20230;-70
2022/06/12 08:12:12;;;;;;;5.18;4.57;;;26.60;99.90;;;;;;5070279;28;20632;-70
2022/06/12 08:14:39;;;;;;;5.93;4.60;;;26.20;99.90;;;;;;5070618;28;20280;-70
2022/06/12 08:17:08;;;;;;;6.53;5.05;;;26.80;99.90;;;;;;5070276;28;20287;-70
2022/06/12 08:22:20;;;;;;;8.95;5.10;;;26.00;99.90;;;;;;5070219;28;20228;-70
2022/06/12 08:24:48;;;;;;;6.85;4.32;;;25.70;99.90;;;;;;5070203;28;20205;-70
2022/06/12 08:27:15;;;;;;;5.03;4.15;;;25.60;99.90;;;;;;5068332;28;20230;-70
2022/06/12 08:29:43;;;;;;;5.78;4.57;;;25.50;99.90;;;;;;5069198;28;20755;-70
2022/06/12 08:32:16;;;;;;;6.47;4.22;;;25.50;99.90;;;;;;5070063;28;20206;-71
2022/06/12 08:34:48;;;;;;;4.38;3.83;;;25.50;99.90;;;;;;5070192;28;20210;-70
2022/06/12 08:37:20;;;;;;;6.75;3.60;;;25.60;99.90;;;;;;5070099;28;20206;-70
2022/06/12 08:39:48;;;;;;;5.32;4.57;;;25.60;99.90;;;;;;5070078;28;20210;-70
2022/06/12 08:42:19;;;;;;;6.32;4.45;;;25.60;99.90;;;;;;5070188;28;20202;-70
2022/06/12 08:44:52;;;;;;;5.78;3.70;;;25.70;99.90;;;;;;5070243;28;20202;-70
2022/06/12 08:47:26;;;;;;;4.45;4.05;;;26.40;99.90;;;;;;5070050;28;20558;-70
2022/06/12 08:50:07;;;;;;;7.13;6.10;;;26.40;99.90;;;;;;5070488;28;20256;-70
2022/06/12 08:52:38;;;;;;;8.88;4.28;;;26.40;99.90;;;;;;5070090;28;20206;-71
2022/06/12 08:55:13;;;;;;;7.53;4.68;;;26.40;99.90;;;;;;5069941;28;20279;-71
2022/06/12 08:57:50;;;;;;;7.88;4.32;;;26.80;99.90;;;;;;5070158;28;20204;-70
2022/06/12 09:00:21;;;;;;;6.88;4.95;;;27.00;99.90;;;;;;5068189;28;20670;-70
2022/06/12 09:02:50;;;;;;;5.20;4.68;;;27.20;99.90;;;;;;5055356;28;20278;-70
2022/06/12 09:05:20;;;;;;;5.15;3.80;;;27.80;99.90;;;;;;5070179;28;20212;-71
2022/06/12 09:07:51;;;;;;;6.20;4.07;;;28.70;99.90;;;;;;5070288;28;20260;-70
2022/06/12 09:10:26;;;;;;;4.88;4.47;;;31.70;99.90;;;;;;5072539;28;20279;-70
2022/06/12 09:12:57;;;;;;;5.00;3.78;;;34.00;99.90;;;;;;5073952;28;20661;-71
2022/06/12 09:15:35;;;;;;;5.25;4.28;;;35.40;99.90;;;;;;5073748;28;20241;-71
2022/06/12 09:18:12;;;;;;;5.20;4.65;;;33.40;99.90;;;;;;5074063;28;20323;-71
2022/06/12 09:20:45;;;;;;;4.63;4.20;;;30.20;99.90;;;;;;5074060;28;20202;-71
2022/06/12 09:23:22;;;;;;;6.47;5.22;;;30.40;99.90;;;;;;5073544;28;20252;-71
2022/06/12 09:25:54;;;;;;;6.10;4.65;;;29.60;99.90;;;;;;5074059;28;20209;-71
2022/06/12 09:28:32;;;;;;;5.05;4.57;;;31.20;99.90;;;;;;5073360;28;20214;-70
2022/06/12 09:31:06;;;;;;;4.40;3.97;;;32.60;99.90;;;;;;5074088;28;20209;-71
2022/06/12 09:33:40;;;;;;;5.32;4.30;;;33.40;99.90;;;;;;5073870;28;20759;-72
2022/06/12 09:36:21;;;;;;;6.78;4.20;;;33.60;99.90;;;;;;5073671;28;20205;-71
2022/06/12 09:39:06;;;;;;;5.95;3.83;;;34.30;99.90;;;;;;5073943;28;20209;-71
2022/06/12 09:41:44;;;;;;;5.80;4.40;;;35.20;99.90;;;;;;5073654;28;20217;-71
2022/06/12 09:44:16;;;;;;;4.60;3.60;;;36.10;99.90;;;;;;5072974;28;20211;-71
2022/06/12 09:46:56;;;;;;;5.72;3.67;;;36.10;99.90;;;;;;5073747;28;20209;-70
2022/06/12 09:49:37;;;;;;;6.25;4.07;;;33.20;99.90;;;;;;5073095;28;20334;-71
2022/06/12 09:52:42;;;;;;;4.57;3.92;;;33.20;99.90;;;;;;5073404;28;20292;-71
2022/06/12 09:55:15;;;;;;;9.35;3.95;;;34.20;99.90;;;;;;5060182;28;20217;-71
2022/06/12 09:57:48;;;;;;;7.68;4.15;;;33.80;99.90;;;;;;5073159;28;20287;-71
2022/06/12 10:00:21;;;;;;;4.03;3.72;;;34.30;99.90;;;;;;5072951;28;20213;-71
2022/06/12 10:02:55;;;;;;;5.93;3.40;;;32.90;99.90;;;;;;5073069;28;20212;-71
2022/06/12 10:05:30;;;;;;;4.20;3.83;;;33.40;99.90;;;;;;5073029;28;20266;-71
2022/06/12 10:08:05;;;;;;;4.05;3.75;;;32.30;99.90;;;;;;5073350;28;20201;-71
2022/06/12 10:10:39;;;;;;;5.88;3.83;;;29.10;99.90;;;;;;5073049;28;20264;-71
2022/06/12 10:13:11;;;;;;;4.47;4.15;;;27.10;99.90;;;;;;5072317;28;20208;-71
2022/06/12 10:15:41;;;;;;;4.80;4.28;;;26.40;99.90;;;;;;5073336;28;20205;-71
2022/06/12 10:18:13;;;;;;;6.28;4.78;;;26.00;99.90;;;;;;5072459;28;20681;-70
2022/06/12 10:20:45;;;;;;;4.40;4.00;;;27.30;99.90;;;;;;5072185;28;20730;-70
2022/06/12 10:23:13;;;;;;;4.82;4.38;;;26.40;99.90;;;;;;5072411;28;20202;-70
2022/06/12 10:25:42;;;;;;;4.10;3.55;;;26.30;99.90;;;;;;5072913;28;20210;-71
2022/06/12 10:28:26;;;;;;;6.43;4.03;;;26.60;99.90;;;;;;5072316;28;20248;-70
2022/06/12 10:31:07;;;;;;;4.75;4.35;;;26.20;99.90;;;;;;5072599;28;20712;-70
2022/06/12 10:33:47;;;;;;;5.28;4.43;;;25.50;99.90;;;;;;5072658;28;20206;-71
2022/06/12 10:36:24;;;;;;;4.65;4.15;;;25.10;99.90;;;;;;5072510;28;20206;-70
2022/06/12 10:38:51;;;;;;;4.47;3.95;;;25.00;99.90;;;;;;5058709;28;20252;-70
2022/06/12 10:41:22;;;;;;;4.45;4.07;;;24.90;99.90;;;;;;5072124;28;20218;-72
2022/06/12 10:43:52;;;;;;;8.45;4.68;;;25.10;99.90;;;;;;5072408;28;20248;-71
2022/06/12 10:46:23;;;;;;;8.95;5.88;;;25.30;99.90;;;;;;5072112;28;20248;-70
2022/06/12 10:48:59;;;;;;;5.55;4.55;;;25.20;99.90;;;;;;5067472;28;20224;-70
2022/06/12 10:51:34;;;;;;;5.80;4.60;;;25.50;99.90;;;;;;5080671;28;20254;-70
2022/06/12 10:54:09;;;;;;;5.13;4.72;;;25.70;99.90;;;;;;5085692;28;20709;-70
2022/06/12 10:56:46;;;;;;;5.97;4.22;;;25.90;99.90;;;;;;5067794;28;20246;-70
2022/06/12 10:59:36;;;;;;;25.10;19.42;;;25.90;99.90;;;;;;5089757;28;20212;-69
2022/06/12 11:02:32;;;;;;;8.52;5.85;;;26.10;99.90;;;;;;5076770;28;20199;-71
2022/06/12 11:05:09;;;;;;;5.43;4.88;;;26.80;99.90;;;;;;5088607;28;20210;-71
2022/06/12 11:07:46;;;;;;;5.57;5.07;;;26.50;99.90;;;;;;5088096;28;20291;-70
2022/06/12 11:10:24;;;;;;;5.13;4.18;;;26.10;99.90;;;;;;5067934;28;20281;-70
2022/06/12 11:13:20;;;;;;;5.85;4.82;;;26.80;99.90;;;;;;5090744;28;20217;-71
2022/06/12 11:16:07;;;;;;;6.60;4.55;;;27.30;99.90;;;;;;5090616;28;20205;-69
2022/06/12 11:18:49;;;;;;;4.22;3.85;;;26.80;99.90;;;;;;5059677;28;20658;-71
2022/06/12 11:21:30;;;;;;;5.70;4.03;;;26.50;99.90;;;;;;5072749;28;20288;-69
2022/06/12 11:24:10;;;;;;;5.10;4.25;;;27.00;99.90;;;;;;5073078;28;20252;-69
2022/06/12 11:26:58;;;;;;;5.05;4.55;;;27.30;99.90;;;;;;5073686;28;20204;-70
2022/06/12 11:29:40;;;;;;;4.50;4.10;;;27.30;99.90;;;;;;5073295;28;20774;-69
2022/06/12 11:32:19;;;;;;;6.57;4.13;;;27.20;99.90;;;;;;5061590;28;20673;-70
2022/06/12 11:35:05;;;;;;;6.18;5.57;;;26.70;99.90;;;;;;5075672;28;20202;-69
2022/06/12 11:37:51;;;;;;;5.07;4.50;;;26.60;99.90;;;;;;5074286;28;20263;-69
2022/06/12 11:40:26;;;;;;;5.13;4.63;;;26.90;99.90;;;;;;5072355;28;20638;-70
2022/06/12 11:43:03;;;;;;;5.00;4.05;;;26.70;99.90;;;;;;5075021;28;20210;-69
2022/06/12 11:45:42;;;;;;;6.50;4.55;;;26.80;99.90;;;;;;5072218;28;20202;-69
2022/06/12 11:48:28;;;;;;;5.93;4.65;;;26.80;99.90;;;;;;5071859;28;20289;-70
2022/06/12 11:51:03;;;;;;;5.28;4.68;;;26.80;99.90;;;;;;5073967;28;20230;-69
2022/06/12 11:53:43;;;;;;;6.53;5.18;;;26.60;99.90;;;;;;5073439;28;20206;-69
2022/06/12 11:56:21;;;;;;;5.63;4.82;;;26.50;99.90;;;;;;5069423;28;20685;-69
2022/06/12 11:58:58;;;;;;;5.68;5.18;;;26.50;99.90;;;;;;5070412;28;20205;-69
2022/06/12 12:01:35;;;;;;;5.65;5.15;;;27.10;99.90;;;;;;5070768;28;20216;-69
2022/06/12 12:04:37;;;;;;;6.78;6.18;;;26.90;99.90;;;;;;5070529;28;20206;-69
2022/06/12 12:07:23;;;;;;;5.80;4.70;;;26.40;99.90;;;;;;5070454;28;20210;-69
2022/06/12 12:10:04;;;;;;;8.73;4.93;;;26.20;99.90;;;;;;5070024;28;20636;-69
2022/06/12 12:12:37;;;;;;;4.97;4.47;;;26.60;99.90;;;;;;5070663;28;20206;-70
2022/06/12 12:15:12;;;;;;;5.93;5.13;;;27.30;99.90;;;;;;5070550;28;20210;-69
2022/06/12 12:17:41;;;;;;;5.32;4.82;;;27.70;99.90;;;;;;5070571;28;20210;-69
2022/06/12 12:20:19;;;;;;;5.18;4.72;;;27.60;99.90;;;;;;5070372;28;20210;-69
2022/06/12 12:22:49;;;;;;;5.35;4.80;;;28.30;99.90;;;;;;5069574;28;20247;-69
2022/06/12 12:25:23;;;;;;;7.07;5.78;;;27.70;99.90;;;;;;5070218;28;20263;-69
2022/06/12 12:27:53;;;;;;;6.25;5.70;;;27.50;99.90;;;;;;5070164;28;20621;-69
2022/06/12 12:30:23;;;;;;;5.85;5.25;;;27.20;99.90;;;;;;5070259;28;20233;-69
2022/06/12 12:32:53;;;;;;;6.82;5.70;;;27.00;99.90;;;;;;5070382;28;21037;-69
2022/06/12 12:41:13;;;;;;;5.32;4.82;;;27.00;99.90;;;;;;5073050;28;20718;-69
2022/06/12 12:43:53;;;;;;;5.80;5.25;;;27.20;99.90;;;;;;5067709;28;20655;-68
2022/06/12 12:46:22;;;;;;;6.88;6.28;;;27.30;99.90;;;;;;5070242;28;20692;-68
2022/06/12 12:48:53;;;;;;;7.25;6.32;;;27.20;99.90;;;;;;5070756;28;20236;-69
2022/06/12 12:51:33;;;;;;;6.90;6.25;;;27.20;99.90;;;;;;5071621;28;20232;-70
2022/06/12 12:54:09;;;;;;;7.22;6.03;;;27.50;99.90;;;;;;5069162;28;20217;-70
2022/06/12 12:56:39;;;;;;;7.00;6.35;;;27.50;99.90;;;;;;5070339;28;20225;-69
2022/06/12 12:59:11;;;;;;;7.13;5.97;;;27.50;99.90;;;;;;5069772;28;20689;-69
2022/06/12 13:01:40;;;;;;;5.40;4.90;;;27.30;99.90;;;;;;5070305;28;20551;-69
2022/06/12 13:04:15;;;;;;;5.22;4.75;;;27.30;99.90;;;;;;5067090;28;20206;-69
2022/06/12 13:07:10;;;;;;;6.95;5.70;;;27.70;99.90;;;;;;5069779;28;20561;-70
2022/06/12 13:10:02;;;;;;;7.20;5.70;;;27.70;99.90;;;;;;5054507;28;20256;-69
2022/06/12 13:12:45;;;;;;;5.68;5.28;;;27.90;99.90;;;;;;5078541;28;20283;-69
2022/06/12 13:15:39;;;;;;;6.43;5.65;;;27.40;99.90;;;;;;5064594;28;20687;-69
2022/06/12 13:18:18;;;;;;;5.38;4.88;;;27.00;99.90;;;;;;5078863;28;20256;-70
2022/06/12 13:20:53;;;;;;;4.97;4.40;;;27.30;99.90;;;;;;5076952;28;20205;-70
2022/06/12 13:23:31;;;;;;;7.60;5.18;;;27.10;99.90;;;;;;5069380;28;20238;-69
2022/06/12 13:26:01;;;;;;;5.70;5.10;;;27.40;99.90;;;;;;5068741;28;20247;-69
2022/06/12 13:28:30;;;;;;;7.95;5.88;;;28.00;99.90;;;;;;5069860;28;20234;-70
2022/06/12 13:31:00;;;;;;;5.93;5.38;;;28.30;99.90;;;;;;5069798;28;20265;-69
2022/06/12 13:33:29;;;;;;;5.65;5.10;;;29.10;99.90;;;;;;5070171;28;20241;-69